Terminal Aerodrome Forecast
Issued by NWS

Home | Current Version | Previous Version | Text Only | Print | Product List | Glossary On
Versions: 1 2 3 4 5 6 7 8 9 10 11 12 13 14 15 16 17 18 19 20 21 22 23 24 25 26 27 28 29 30 31 32
000
FTUS45 KBOU 201130
TAFBJC
TAF
KBJC 201130Z 2012/2112 VRB06KT P6SM SCT060
     FM201500 14010KT P6SM BKN060 BKN150
     FM202000 01010KT P6SM BKN060
      TEMPO 2020/2023 -SHRA OVC050
     FM202300 06009KT 5SM -SHRA BR SCT015 OVC025
     FM210200 10013KT 3SM -RA BR SCT008 OVC015
     FM211000 33014KT P6SM -SHRA SCT015 OVC030=

USA.gov is the U.S. government's official web portal to all federal, state and local government web resources and services.